Terminal Aerodrome Forecast
Issued by NWS

Home | Current Version | Previous Version | Text Only | Print | Product List | Glossary On
Versions: 1 2 3 4 5 6 7 8 9 10 11 12 13 14 15 16 17
000
FTUS41 KGYX 231100
TAFLEB
TAF
KLEB 231120Z 2312/2412 34006KT P6SM BKN025 OVC060
     FM231400 32008KT P6SM SCT030 OVC050
     FM231800 32014G22KT P6SM VCSH BKN050 BKN080=

USA.gov is the U.S. government's official web portal to all federal, state and local government web resources and services.